createdAt,value
2016-03-01T00:00:52.044Z,1014.16
2016-03-01T00:01:52.030Z,1014.18
2016-03-01T00:02:52.002Z,1014.18
2016-03-01T00:03:51.974Z,1014.18
2016-03-01T00:04:51.945Z,1014.17
2016-03-01T00:05:51.917Z,1014.13
2016-03-01T00:06:51.904Z,1014.11
2016-03-01T00:07:51.874Z,1014.1
2016-03-01T00:08:51.846Z,1014.08
2016-03-01T00:09:51.818Z,1014.1
2016-03-01T00:10:51.789Z,1014.1
2016-03-01T00:11:51.776Z,1014.11
2016-03-01T00:12:51.748Z,1014.13
2016-03-01T00:13:51.720Z,1014.1
2016-03-01T00:14:51.690Z,1014.1
2016-03-01T00:15:51.678Z,1014.14
2016-03-01T00:16:51.648Z,1014.17
2016-03-01T00:17:51.621Z,1014.19
2016-03-01T00:18:51.592Z,1014.21
2016-03-01T00:19:51.564Z,1014.22
2016-03-01T00:20:51.550Z,1014.23
2016-03-01T00:21:51.523Z,1014.19
2016-03-01T00:22:51.494Z,1014.16
2016-03-01T00:23:51.465Z,1014.17
2016-03-01T00:24:51.453Z,1014.18
2016-03-01T00:25:51.423Z,1014.2
2016-03-01T00:26:51.395Z,1014.23
2016-03-01T00:27:51.366Z,1014.25
2016-03-01T00:28:51.338Z,1014.26
2016-03-01T00:29:51.324Z,1014.26
2016-03-01T00:30:51.299Z,1014.26
2016-03-01T00:31:51.286Z,1014.23
2016-03-01T00:32:51.241Z,1014.24
2016-03-01T00:33:51.213Z,1014.25
2016-03-01T00:34:51.216Z,1014.24
2016-03-01T00:35:51.172Z,1014.28
2016-03-01T00:36:51.144Z,1014.31
2016-03-01T00:37:51.115Z,1014.32
2016-03-01T00:38:51.086Z,1014.32
2016-03-01T00:39:51.057Z,1014.28
2016-03-01T00:40:51.044Z,1014.24
2016-03-01T00:41:51.016Z,1014.23
2016-03-01T00:42:50.988Z,1014.2
2016-03-01T00:43:50.959Z,1014.24
2016-03-01T00:44:50.931Z,1014.26
2016-03-01T00:45:50.918Z,1014.25
2016-03-01T00:46:50.890Z,1014.26
2016-03-01T00:47:50.860Z,1014.26
2016-03-01T00:48:50.832Z,1014.31
2016-03-01T00:49:50.834Z,1014.29
2016-03-01T00:50:50.790Z,1014.32
2016-03-01T00:51:50.766Z,1014.3
2016-03-01T00:52:50.737Z,1014.3
2016-03-01T00:53:50.708Z,1014.31
2016-03-01T00:54:50.680Z,1014.32
2016-03-01T00:55:50.667Z,1014.3
2016-03-01T00:56:50.638Z,1014.29
2016-03-01T00:57:50.610Z,1014.28
2016-03-01T00:58:50.582Z,1014.29
2016-03-01T00:59:50.554Z,1014.27
2016-03-01T01:00:50.524Z,1014.31
2016-03-01T01:01:50.495Z,1014.28
2016-03-01T01:02:50.483Z,1014.3
2016-03-01T01:03:50.455Z,1014.28
2016-03-01T01:04:50.426Z,1014.23
2016-03-01T01:05:50.398Z,1014.28
2016-03-01T01:06:50.384Z,1014.21
2016-03-01T01:07:50.371Z,1014.24
2016-03-01T01:08:50.328Z,1014.22
2016-03-01T01:09:50.299Z,1014.22
2016-03-01T01:10:50.301Z,1014.23
2016-03-01T01:11:50.257Z,1014.25
2016-03-01T01:12:50.244Z,1014.24
2016-03-01T01:13:50.200Z,1014.26
2016-03-01T01:14:50.171Z,1014.2
2016-03-01T01:15:50.174Z,1014.2
2016-03-01T01:16:50.130Z,1014.19
2016-03-01T01:17:50.102Z,1014.17
2016-03-01T01:18:50.088Z,1014.13
2016-03-01T01:19:50.044Z,1014.06
2016-03-01T01:20:50.015Z,1014.07
2016-03-01T01:21:50.144Z,1014.06
2016-03-01T01:22:50.006Z,1014.1
2016-03-01T01:23:49.946Z,1014.13
2016-03-01T01:24:49.949Z,1014.15
2016-03-01T01:25:49.888Z,1014.17
2016-03-01T01:26:49.876Z,1014.14
2016-03-01T01:27:49.847Z,1014.09
2016-03-01T01:28:49.818Z,1014.08
2016-03-01T01:29:49.790Z,1014.07
2016-03-01T01:30:49.776Z,1014.05
2016-03-01T01:31:49.748Z,1014.08
2016-03-01T01:32:49.720Z,1014.1
2016-03-01T01:33:49.707Z,1014.09
2016-03-01T01:34:49.679Z,1014.05
2016-03-01T01:35:49.634Z,1014.06
2016-03-01T01:36:49.621Z,1014.14
2016-03-01T01:37:49.592Z,1014.14
2016-03-01T01:38:49.580Z,1014.13
2016-03-01T01:39:49.536Z,1014.18
2016-03-01T01:40:49.507Z,1014.14
2016-03-01T01:41:49.495Z,1014.12
2016-03-01T01:42:49.465Z,1014.14
2016-03-01T01:43:49.437Z,1014.11
2016-03-01T01:44:49.408Z,1014.09
2016-03-01T01:45:49.395Z,1014.13
2016-03-01T01:46:49.367Z,1014.14
2016-03-01T01:47:49.339Z,1014.14
2016-03-01T01:48:49.310Z,1014.16
2016-03-01T01:49:49.297Z,1014.18
2016-03-01T01:50:49.252Z,1014.2
2016-03-01T01:51:49.239Z,1014.19
2016-03-01T01:52:49.211Z,1014.17
2016-03-01T01:53:49.183Z,1014.13
2016-03-01T01:54:49.154Z,1014.1
2016-03-01T01:55:49.141Z,1014.04
2016-03-01T01:56:49.112Z,1014.02
2016-03-01T01:57:49.085Z,1014
2016-03-01T01:58:49.055Z,1014.01
2016-03-01T01:59:49.027Z,1014.04
2016-03-01T02:00:48.998Z,1014.03
2016-03-01T02:01:48.985Z,1014.01
2016-03-01T02:02:48.957Z,1013.99
2016-03-01T02:03:48.929Z,1013.92
2016-03-01T02:04:48.899Z,1013.93
2016-03-01T02:05:48.887Z,1013.95
2016-03-01T02:06:48.859Z,1013.88
2016-03-01T02:07:48.846Z,1013.9
2016-03-01T02:08:48.801Z,1013.85
2016-03-01T02:09:48.788Z,1013.87
2016-03-01T02:10:48.744Z,1013.88
2016-03-01T02:11:48.731Z,1013.86
2016-03-01T02:12:48.703Z,1013.84
2016-03-01T02:13:48.674Z,1013.87
2016-03-01T02:14:48.645Z,1013.85
2016-03-01T02:15:48.617Z,1013.87
2016-03-01T02:16:48.603Z,1013.84
2016-03-01T02:17:48.575Z,1013.85
2016-03-01T02:18:48.547Z,1013.86
2016-03-01T02:19:48.518Z,1013.87
2016-03-01T02:20:48.514Z,1013.9
2016-03-01T02:21:48.471Z,1013.91
2016-03-01T02:22:48.443Z,1013.88
2016-03-01T02:23:48.521Z,1013.92
2016-03-01T02:24:48.430Z,1013.88
2016-03-01T02:25:48.369Z,1013.92
2016-03-01T02:26:48.342Z,1013.91
2016-03-01T02:27:48.329Z,1013.9
2016-03-01T02:28:48.285Z,1013.92
2016-03-01T02:29:48.256Z,1013.88
2016-03-01T02:30:48.244Z,1013.9
2016-03-01T02:31:48.215Z,1013.9
2016-03-01T02:32:48.186Z,1013.93
2016-03-01T02:33:48.157Z,1013.92
2016-03-01T02:34:48.129Z,1013.91
2016-03-01T02:35:48.132Z,1013.91
2016-03-01T02:36:48.087Z,1013.96
2016-03-01T02:37:48.059Z,1014
2016-03-01T02:38:48.029Z,1013.96
2016-03-01T02:39:48.002Z,1013.98
2016-03-01T02:40:47.989Z,1014
2016-03-01T02:41:47.960Z,1013.96
2016-03-01T02:42:47.932Z,1014
2016-03-01T02:43:47.903Z,1014
2016-03-01T02:44:47.875Z,1014.03
2016-03-01T02:45:47.845Z,1014.03
2016-03-01T02:46:47.848Z,1014.01
2016-03-01T02:47:47.804Z,1013.99
2016-03-01T02:48:47.792Z,1013.96
2016-03-01T02:49:47.747Z,1013.92
2016-03-01T02:50:47.719Z,1013.93
2016-03-01T02:51:47.706Z,1013.92
2016-03-01T02:52:47.677Z,1013.93
2016-03-01T02:53:47.649Z,1013.96
2016-03-01T02:54:47.620Z,1013.96
2016-03-01T02:55:47.607Z,1013.96
2016-03-01T02:56:47.578Z,1013.95
2016-03-01T02:57:47.550Z,1013.97
2016-03-01T02:58:47.522Z,1013.98
2016-03-01T02:59:47.493Z,1014.02
2016-03-01T03:00:47.480Z,1014.01
2016-03-01T03:01:47.451Z,1014.02
2016-03-01T03:02:47.423Z,1014
2016-03-01T03:03:47.410Z,1013.98
2016-03-01T03:04:47.366Z,1013.94
2016-03-01T03:05:47.337Z,1013.94
2016-03-01T03:06:47.309Z,1013.95
2016-03-01T03:07:47.296Z,1013.94
2016-03-01T03:08:47.268Z,1013.93
2016-03-01T03:09:47.238Z,1013.95
2016-03-01T03:10:47.210Z,1013.94
2016-03-01T03:11:47.181Z,1013.88
2016-03-01T03:12:47.168Z,1013.85
2016-03-01T03:13:47.140Z,1013.81
2016-03-01T03:14:47.205Z,1013.78
2016-03-01T03:15:47.083Z,1013.75
2016-03-01T03:16:47.054Z,1013.74
2016-03-01T03:17:47.041Z,1013.7
2016-03-01T03:18:47.012Z,1013.7
2016-03-01T03:19:46.984Z,1013.69
2016-03-01T03:20:46.955Z,1013.67
2016-03-01T03:21:46.942Z,1013.64
2016-03-01T03:22:46.914Z,1013.68
2016-03-01T03:23:46.886Z,1013.69
2016-03-01T03:24:46.872Z,1013.7
2016-03-01T03:25:46.829Z,1013.7
2016-03-01T03:26:46.800Z,1013.68
2016-03-01T03:27:46.787Z,1013.7
2016-03-01T03:28:46.758Z,1013.75
2016-03-01T03:29:46.730Z,1013.77
2016-03-01T03:30:46.701Z,1013.77
2016-03-01T03:31:46.672Z,1013.79
2016-03-01T03:32:46.660Z,1013.78
2016-03-01T03:33:46.632Z,1013.77
2016-03-01T03:34:46.602Z,1013.77
2016-03-01T03:35:46.574Z,1013.74
2016-03-01T03:36:46.546Z,1013.67
2016-03-01T03:37:46.517Z,1013.67
2016-03-01T03:38:46.505Z,1013.61
2016-03-01T03:39:46.476Z,1013.64
2016-03-01T03:40:46.447Z,1013.64
2016-03-01T03:41:46.418Z,1013.63
2016-03-01T03:42:46.406Z,1013.68
2016-03-01T03:43:46.377Z,1013.65
2016-03-01T03:44:46.349Z,1013.64
2016-03-01T03:45:46.320Z,1013.64
2016-03-01T03:46:46.292Z,1013.67
2016-03-01T03:47:46.262Z,1013.63
2016-03-01T03:48:46.234Z,1013.69
2016-03-01T03:49:46.220Z,1013.67
2016-03-01T03:50:46.193Z,1013.66
2016-03-01T03:51:46.164Z,1013.66
2016-03-01T03:52:46.151Z,1013.63
2016-03-01T03:53:46.106Z,1013.58
2016-03-01T03:54:46.094Z,1013.53
2016-03-01T03:55:46.065Z,1013.57
2016-03-01T03:56:46.037Z,1013.49
2016-03-01T03:57:46.009Z,1013.46
2016-03-01T03:58:45.980Z,1013.42
2016-03-01T03:59:45.951Z,1013.39
2016-03-01T04:00:45.938Z,1013.37
2016-03-01T04:01:45.910Z,1013.35
2016-03-01T04:02:45.881Z,1013.35
2016-03-01T04:03:45.853Z,1013.36
2016-03-01T04:04:45.840Z,1013.36
2016-03-01T04:05:45.827Z,1013.36
2016-03-01T04:06:45.782Z,1013.32
2016-03-01T04:07:45.754Z,1013.3
2016-03-01T04:08:45.725Z,1013.25
2016-03-01T04:09:45.697Z,1013.26
2016-03-01T04:10:45.679Z,1013.21
2016-03-01T04:11:45.651Z,1013.18
2016-03-01T04:12:45.638Z,1013.1
2016-03-01T04:13:45.593Z,1013.09
2016-03-01T04:14:45.580Z,1013.13
2016-03-01T04:15:45.552Z,1013.18
2016-03-01T04:16:45.523Z,1013.23
2016-03-01T04:17:45.495Z,1013.27
2016-03-01T04:18:45.466Z,1013.29
2016-03-01T04:19:45.468Z,1013.31
2016-03-01T04:20:45.426Z,1013.29
2016-03-01T04:21:45.412Z,1013.26
2016-03-01T04:22:45.368Z,1013.22
2016-03-01T04:23:45.370Z,1013.21
2016-03-01T04:24:45.311Z,1013.18
2016-03-01T04:25:45.298Z,1013.16
2016-03-01T04:26:45.270Z,1013.11
2016-03-01T04:27:45.240Z,1013.09
2016-03-01T04:28:45.212Z,1013.09
2016-03-01T04:29:45.183Z,1013.1
2016-03-01T04:30:45.170Z,1013.05
2016-03-01T04:31:45.142Z,1013.06
2016-03-01T04:32:45.114Z,1013.05
2016-03-01T04:33:45.086Z,1013.02
2016-03-01T04:34:45.056Z,1013.04
2016-03-01T04:35:45.044Z,1013.04
2016-03-01T04:36:45.014Z,1013.03
2016-03-01T04:37:44.986Z,1013.01
2016-03-01T04:38:44.958Z,1013.01
2016-03-01T04:39:44.929Z,1013.05
2016-03-01T04:40:44.900Z,1013.06
2016-03-01T04:41:44.888Z,1013.04
2016-03-01T04:42:44.859Z,1013.06
2016-03-01T04:43:44.830Z,1013.05
2016-03-01T04:44:44.802Z,1013.04
2016-03-01T04:45:44.774Z,1012.98
2016-03-01T04:46:44.745Z,1013.01
2016-03-01T04:47:44.732Z,1012.99
2016-03-01T04:48:44.703Z,1013.01
2016-03-01T04:49:44.674Z,1013.06
2016-03-01T04:50:44.645Z,1013.11
2016-03-01T04:51:44.618Z,1013.09
2016-03-01T04:52:44.589Z,1013.08
2016-03-01T04:53:44.576Z,1013.11
2016-03-01T04:54:44.562Z,1013.13
2016-03-01T04:55:44.519Z,1013.1
2016-03-01T04:56:44.506Z,1013.13
2016-03-01T04:57:44.462Z,1013.14
2016-03-01T04:58:44.465Z,1013.13
2016-03-01T04:59:44.420Z,1013.12
2016-03-01T05:00:44.548Z,1013.14
2016-03-01T05:01:44.363Z,1013.16
2016-03-01T05:02:44.350Z,1013.17
2016-03-01T05:03:44.305Z,1013.16
2016-03-01T05:04:44.294Z,1013.2
2016-03-01T05:05:44.264Z,1013.2
2016-03-01T05:06:44.236Z,1013.21
2016-03-01T05:07:44.239Z,1013.21
2016-03-01T05:08:44.194Z,1013.27
2016-03-01T05:09:44.166Z,1013.3
2016-03-01T05:10:44.137Z,1013.34
2016-03-01T05:11:44.108Z,1013.31
2016-03-01T05:12:44.096Z,1013.36
2016-03-01T05:13:44.068Z,1013.34
2016-03-01T05:14:44.038Z,1013.3
2016-03-01T05:15:44.010Z,1013.32
2016-03-01T05:16:43.982Z,1013.3
2016-03-01T05:17:43.969Z,1013.28
2016-03-01T05:18:43.923Z,1013.26
2016-03-01T05:19:43.900Z,1013.2
2016-03-01T05:20:43.859Z,1013.16
2016-03-01T05:21:43.820Z,1013.14
2016-03-01T05:22:43.781Z,1013.11
2016-03-01T05:23:43.742Z,1013.14
2016-03-01T05:24:43.708Z,1013.13
2016-03-01T05:25:43.691Z,1013.15
2016-03-01T05:26:43.659Z,1013.11
2016-03-01T05:27:43.626Z,1013.09
2016-03-01T05:28:43.593Z,1013.13
2016-03-01T05:29:43.564Z,1013.08
2016-03-01T05:30:43.549Z,1013.08
2016-03-01T05:31:43.519Z,1013.05
2016-03-01T05:32:43.489Z,1013.11
2016-03-01T05:33:43.458Z,1013.08
2016-03-01T05:34:43.429Z,1013.06
2016-03-01T05:35:43.417Z,1013.08
2016-03-01T05:36:43.387Z,1013.06
2016-03-01T05:37:43.358Z,1013.1
2016-03-01T05:38:43.329Z,1013.07
2016-03-01T05:39:43.300Z,1013.06
2016-03-01T05:40:43.272Z,1013.02
2016-03-01T05:41:43.243Z,1013.02
2016-03-01T05:42:43.229Z,1013.02
2016-03-01T05:43:43.200Z,1013.05
2016-03-01T05:44:43.172Z,1013.06
2016-03-01T05:45:43.144Z,1013.06
2016-03-01T05:46:43.115Z,1013.09
2016-03-01T05:47:43.102Z,1013.06
2016-03-01T05:48:43.074Z,1013.04
2016-03-01T05:49:43.044Z,1013.06
2016-03-01T05:50:43.016Z,1013.08
2016-03-01T05:51:42.987Z,1013.05
2016-03-01T05:52:42.974Z,1013.1
2016-03-01T05:53:42.946Z,1013.08
2016-03-01T05:54:42.918Z,1013.03
2016-03-01T05:55:42.889Z,1013.02
2016-03-01T05:56:42.860Z,1013
2016-03-01T05:57:42.831Z,1012.96
2016-03-01T05:58:42.804Z,1012.94
2016-03-01T05:59:42.790Z,1012.97
2016-03-01T06:00:42.762Z,1012.92
2016-03-01T06:01:42.734Z,1012.91
2016-03-01T06:02:42.704Z,1012.9
2016-03-01T06:03:42.676Z,1012.92
2016-03-01T06:04:42.882Z,1012.91
2016-03-01T06:05:42.634Z,1012.93
2016-03-01T06:06:42.606Z,1012.9
2016-03-01T06:07:42.578Z,1012.89
2016-03-01T06:08:42.548Z,1012.82
2016-03-01T06:09:42.520Z,1012.84
2016-03-01T06:10:42.491Z,1012.79
2016-03-01T06:11:42.479Z,1012.81
2016-03-01T06:12:42.450Z,1012.83
2016-03-01T06:13:42.422Z,1012.78
2016-03-01T06:14:42.394Z,1012.8
2016-03-01T06:15:42.364Z,1012.79
2016-03-01T06:16:42.352Z,1012.82
2016-03-01T06:17:42.322Z,1012.83
2016-03-01T06:18:42.294Z,1012.79
2016-03-01T06:19:42.266Z,1012.76
2016-03-01T06:20:42.238Z,1012.78
2016-03-01T06:21:42.224Z,1012.76
2016-03-01T06:22:42.196Z,1012.75
2016-03-01T06:23:42.167Z,1012.8
2016-03-01T06:24:42.139Z,1012.77
2016-03-01T06:25:42.110Z,1012.71
2016-03-01T06:26:42.082Z,1012.73
2016-03-01T06:27:42.054Z,1012.72
2016-03-01T06:28:42.040Z,1012.69
2016-03-01T06:29:42.027Z,1012.7
2016-03-01T06:30:41.983Z,1012.68
2016-03-01T06:31:41.970Z,1012.66
2016-03-01T06:32:41.926Z,1012.6
2016-03-01T06:33:41.898Z,1012.59
2016-03-01T06:34:41.884Z,1012.52
2016-03-01T06:35:41.856Z,1012.57
2016-03-01T06:36:41.827Z,1012.54
2016-03-01T06:37:41.799Z,1012.55
2016-03-01T06:38:41.770Z,1012.56
2016-03-01T06:39:41.757Z,1012.5
2016-03-01T06:40:41.728Z,1012.51
2016-03-01T06:41:41.700Z,1012.46
2016-03-01T06:42:41.672Z,1012.46
2016-03-01T06:43:41.643Z,1012.47
2016-03-01T06:44:41.630Z,1012.47
2016-03-01T06:45:41.602Z,1012.46
2016-03-01T06:46:41.573Z,1012.48
2016-03-01T06:47:41.560Z,1012.47
2016-03-01T06:48:41.531Z,1012.44
2016-03-01T06:49:41.502Z,1012.42
2016-03-01T06:50:41.474Z,1012.42
2016-03-01T06:51:41.446Z,1012.41
2016-03-01T06:52:41.416Z,1012.44
2016-03-01T06:53:41.388Z,1012.42
2016-03-01T06:54:41.360Z,1012.42
2016-03-01T06:55:41.332Z,1012.4
2016-03-01T06:56:41.319Z,1012.44
2016-03-01T06:57:41.290Z,1012.42
2016-03-01T06:58:41.262Z,1012.45
2016-03-01T06:59:41.233Z,1012.44
2016-03-01T07:00:41.204Z,1012.45
2016-03-01T07:01:41.191Z,1012.46
2016-03-01T07:02:41.163Z,1012.49
2016-03-01T07:03:41.135Z,1012.49
2016-03-01T07:04:41.121Z,1012.5
2016-03-01T07:05:41.077Z,1012.47
2016-03-01T07:06:41.064Z,1012.47
2016-03-01T07:07:41.036Z,1012.45
2016-03-01T07:08:41.007Z,1012.49
2016-03-01T07:09:40.979Z,1012.53
2016-03-01T07:10:40.965Z,1012.5
2016-03-01T07:11:40.922Z,1012.54
2016-03-01T07:12:40.908Z,1012.51
2016-03-01T07:13:40.881Z,1012.5
2016-03-01T07:14:40.851Z,1012.5
2016-03-01T07:15:40.823Z,1012.53
2016-03-01T07:16:40.810Z,1012.54
2016-03-01T07:17:40.766Z,1012.53
2016-03-01T07:18:40.753Z,1012.59
2016-03-01T07:19:40.724Z,1012.61
2016-03-01T07:20:40.711Z,1012.65
2016-03-01T07:21:40.667Z,1012.69
2016-03-01T07:22:40.655Z,1012.68
2016-03-01T07:23:40.641Z,1012.65
2016-03-01T07:24:40.597Z,1012.67
2016-03-01T07:25:40.568Z,1012.68
2016-03-01T07:26:40.541Z,1012.65
2016-03-01T07:27:40.527Z,1012.63
2016-03-01T07:28:40.499Z,1012.64
2016-03-01T07:29:40.470Z,1012.57
2016-03-01T07:30:40.441Z,1012.6
2016-03-01T07:31:40.412Z,1012.63
2016-03-01T07:32:40.384Z,1012.63
2016-03-01T07:33:40.371Z,1012.62
2016-03-01T07:34:40.343Z,1012.69
2016-03-01T07:35:40.314Z,1012.69
2016-03-01T07:36:40.285Z,1012.68
2016-03-01T07:37:40.257Z,1012.75
2016-03-01T07:38:40.228Z,1012.75
2016-03-01T07:39:40.215Z,1012.75
2016-03-01T07:40:40.218Z,1012.76
2016-03-01T07:41:40.159Z,1012.77
2016-03-01T07:42:40.146Z,1012.79
2016-03-01T07:43:40.101Z,1012.81
2016-03-01T07:44:40.088Z,1012.75
2016-03-01T07:45:40.075Z,1012.79
2016-03-01T07:46:40.031Z,1012.74
2016-03-01T07:47:40.019Z,1012.75
2016-03-01T07:48:39.975Z,1012.72
2016-03-01T07:49:39.961Z,1012.68
2016-03-01T07:50:39.947Z,1012.63
2016-03-01T07:51:39.905Z,1012.59
2016-03-01T07:52:39.875Z,1012.51
2016-03-01T07:53:39.847Z,1012.5
2016-03-01T07:54:39.818Z,1012.44
2016-03-01T07:55:39.805Z,1012.44
2016-03-01T07:56:39.777Z,1012.43
2016-03-01T07:57:39.873Z,1012.37
2016-03-01T07:58:39.736Z,1012.35
2016-03-01T07:59:39.691Z,1012.33
2016-03-01T08:00:39.662Z,1012.31
2016-03-01T08:01:39.649Z,1012.27
2016-03-01T08:02:39.621Z,1012.26
2016-03-01T08:03:39.593Z,1012.19
2016-03-01T08:04:39.564Z,1012.18
2016-03-01T08:05:39.567Z,1012.17
2016-03-01T08:06:39.523Z,1012.13
2016-03-01T08:07:39.697Z,1012.06
2016-03-01T08:08:39.465Z,1012.04
2016-03-01T08:09:39.437Z,1012
2016-03-01T08:10:39.424Z,1011.93
2016-03-01T08:11:39.411Z,1011.92
2016-03-01T08:12:39.382Z,1011.9
2016-03-01T08:13:39.339Z,1011.87
2016-03-01T08:14:39.309Z,1011.83
2016-03-01T08:15:39.281Z,1011.82
2016-03-01T08:16:39.252Z,1011.83
2016-03-01T08:17:39.240Z,1011.81
2016-03-01T08:18:39.211Z,1011.83
2016-03-01T08:19:39.183Z,1011.82
2016-03-01T08:20:39.154Z,1011.87
2016-03-01T08:21:39.141Z,1011.85
2016-03-01T08:22:39.113Z,1011.85
2016-03-01T08:23:39.083Z,1011.92
2016-03-01T08:24:39.055Z,1011.87
2016-03-01T08:25:39.027Z,1011.86
2016-03-01T08:26:39.232Z,1011.85
2016-03-01T08:27:38.985Z,1011.87
2016-03-01T08:28:38.972Z,1011.82
2016-03-01T08:29:38.927Z,1011.75
2016-03-01T08:30:38.899Z,1011.77
2016-03-01T08:31:38.887Z,1011.77
2016-03-01T08:32:38.858Z,1011.77
2016-03-01T08:33:38.829Z,1011.77
2016-03-01T08:34:38.801Z,1011.67
2016-03-01T08:35:38.788Z,1011.7
2016-03-01T08:36:38.760Z,1011.68
2016-03-01T08:37:38.731Z,1011.67
2016-03-01T08:38:38.701Z,1011.66
2016-03-01T08:39:38.674Z,1011.67
2016-03-01T08:40:38.645Z,1011.66
2016-03-01T08:41:38.617Z,1011.66
2016-03-01T08:42:38.604Z,1011.68
2016-03-01T08:43:38.590Z,1011.66
2016-03-01T08:44:38.547Z,1011.67
2016-03-01T08:45:38.517Z,1011.65
2016-03-01T08:46:38.506Z,1011.65
2016-03-01T08:47:38.476Z,1011.64
2016-03-01T08:48:38.447Z,1011.64
2016-03-01T08:49:38.419Z,1011.65
2016-03-01T08:50:38.406Z,1011.66
2016-03-01T08:51:38.378Z,1011.63
2016-03-01T08:52:38.350Z,1011.62
2016-03-01T08:53:38.322Z,1011.62
2016-03-01T08:54:38.292Z,1011.59
2016-03-01T08:55:38.263Z,1011.59
2016-03-01T08:56:38.236Z,1011.59
2016-03-01T08:57:38.222Z,1011.53
2016-03-01T08:58:38.194Z,1011.47
2016-03-01T08:59:38.165Z,1011.41
2016-03-01T09:00:38.152Z,1011.44
2016-03-01T09:01:38.139Z,1011.42
2016-03-01T09:02:38.095Z,1011.45
2016-03-01T09:03:38.066Z,1011.39
2016-03-01T09:04:38.038Z,1011.4
2016-03-01T09:05:38.024Z,1011.38
2016-03-01T09:06:37.996Z,1011.34
2016-03-01T09:07:37.968Z,1011.3
2016-03-01T09:08:37.939Z,1011.24
2016-03-01T09:09:37.910Z,1011.26
2016-03-01T09:10:37.897Z,1011.24
2016-03-01T09:11:37.870Z,1011.21
2016-03-01T09:12:37.840Z,1011.19
2016-03-01T09:13:37.812Z,1011.17
2016-03-01T09:14:37.784Z,1011.15
2016-03-01T09:15:37.755Z,1011.12
2016-03-01T09:16:37.742Z,1011.06
2016-03-01T09:17:37.713Z,1011.04
2016-03-01T09:18:37.701Z,1011.05
2016-03-01T09:19:37.656Z,1010.98
2016-03-01T09:20:37.644Z,1010.95
2016-03-01T09:21:37.614Z,1010.92
2016-03-01T09:22:37.586Z,1010.91
2016-03-01T09:23:37.558Z,1010.93
2016-03-01T09:24:37.544Z,1010.96
2016-03-01T09:25:37.517Z,1010.93
2016-03-01T09:26:37.488Z,1010.94
2016-03-01T09:27:37.458Z,1010.98
2016-03-01T09:28:37.430Z,1010.97
2016-03-01T09:29:37.418Z,1010.93
2016-03-01T09:30:37.389Z,1010.95
2016-03-01T09:31:37.360Z,1010.97
2016-03-01T09:32:37.332Z,1010.93
2016-03-01T09:33:37.304Z,1010.95
2016-03-01T09:34:37.290Z,1010.91
2016-03-01T09:35:37.262Z,1010.89
2016-03-01T09:36:37.233Z,1010.87
2016-03-01T09:37:37.205Z,1010.83
2016-03-01T09:38:37.192Z,1010.83
2016-03-01T09:39:37.163Z,1010.82
2016-03-01T09:40:37.151Z,1010.78
2016-03-01T09:41:37.106Z,1010.79
2016-03-01T09:42:37.077Z,1010.77
2016-03-01T09:43:37.064Z,1010.8
2016-03-01T09:44:37.036Z,1010.8
2016-03-01T09:45:37.007Z,1010.8
2016-03-01T09:46:36.978Z,1010.76
2016-03-01T09:47:36.951Z,1010.75
2016-03-01T09:48:36.953Z,1010.76
2016-03-01T09:49:36.908Z,1010.78
2016-03-01T09:50:36.927Z,1010.75
2016-03-01T09:51:36.852Z,1010.72
2016-03-01T09:52:36.838Z,1010.7
2016-03-01T09:53:36.810Z,1010.67
2016-03-01T09:54:36.781Z,1010.66
2016-03-01T09:55:36.753Z,1010.65
2016-03-01T09:56:36.740Z,1010.57
2016-03-01T09:57:36.712Z,1010.55
2016-03-01T09:58:36.699Z,1010.56
2016-03-01T09:59:36.655Z,1010.54
2016-03-01T10:00:36.641Z,1010.49
2016-03-01T10:01:36.613Z,1010.52
2016-03-01T10:02:36.600Z,1010.51
2016-03-01T10:03:36.555Z,1010.49
2016-03-01T10:04:36.543Z,1010.46
2016-03-01T10:05:36.515Z,1010.43
2016-03-01T10:06:36.486Z,1010.42
2016-03-01T10:07:36.457Z,1010.37
2016-03-01T10:08:36.444Z,1010.35
2016-03-01T10:09:36.416Z,1010.33
2016-03-01T10:10:36.387Z,1010.38
2016-03-01T10:11:36.359Z,1010.33
2016-03-01T10:12:36.346Z,1010.31
2016-03-01T10:13:36.317Z,1010.31
2016-03-01T10:14:36.289Z,1010.27
2016-03-01T10:15:36.275Z,1010.26
2016-03-01T10:16:36.231Z,1010.29
2016-03-01T10:17:36.218Z,1010.24
2016-03-01T10:18:36.189Z,1010.18
2016-03-01T10:19:36.162Z,1010.21
2016-03-01T10:20:36.148Z,1010.16
2016-03-01T10:21:36.135Z,1010.18
2016-03-01T10:22:36.091Z,1010.25
2016-03-01T10:23:36.063Z,1010.23
2016-03-01T10:24:36.050Z,1010.25
2016-03-01T10:25:36.036Z,1010.21
2016-03-01T10:26:35.992Z,1010.19
2016-03-01T10:27:35.980Z,1010.19
2016-03-01T10:28:35.951Z,1010.19
2016-03-01T10:29:35.922Z,1010.11
2016-03-01T10:30:35.894Z,1010.04
2016-03-01T10:31:35.881Z,1009.98
2016-03-01T10:32:35.868Z,1009.98
2016-03-01T10:33:35.824Z,1010.04
2016-03-01T10:34:35.811Z,1009.96
2016-03-01T10:35:35.782Z,1009.93
2016-03-01T10:36:35.754Z,1009.94
2016-03-01T10:37:35.725Z,1009.92
2016-03-01T10:38:35.697Z,1009.9
2016-03-01T10:39:35.668Z,1009.86
2016-03-01T10:40:35.655Z,1009.87
2016-03-01T10:41:35.627Z,1009.84
2016-03-01T10:42:35.598Z,1009.79
2016-03-01T10:43:35.585Z,1009.8
2016-03-01T10:44:35.557Z,1009.76
2016-03-01T10:45:35.529Z,1009.72
2016-03-01T10:46:35.812Z,1009.71
2016-03-01T10:47:35.486Z,1009.69
2016-03-01T10:48:35.459Z,1009.7
2016-03-01T10:49:35.429Z,1009.66
2016-03-01T10:50:35.417Z,1009.62
2016-03-01T10:51:35.389Z,1009.66
2016-03-01T10:52:35.359Z,1009.6
2016-03-01T10:53:35.330Z,1009.57
2016-03-01T10:54:35.317Z,1009.57
2016-03-01T10:55:35.320Z,1009.55
2016-03-01T10:56:35.261Z,1009.55
2016-03-01T10:57:35.247Z,1009.55
2016-03-01T10:58:35.219Z,1009.55
2016-03-01T10:59:35.191Z,1009.5
2016-03-01T11:00:35.162Z,1009.49
2016-03-01T11:01:35.150Z,1009.5
2016-03-01T11:02:35.121Z,1009.48
2016-03-01T11:03:35.092Z,1009.48
2016-03-01T11:04:35.063Z,1009.46
2016-03-01T11:05:35.051Z,1009.44
2016-03-01T11:06:35.022Z,1009.43
2016-03-01T11:07:34.993Z,1009.39
2016-03-01T11:08:34.980Z,1009.33
2016-03-01T11:09:34.952Z,1009.33
2016-03-01T11:10:34.924Z,1009.33
2016-03-01T11:11:34.910Z,1009.29
2016-03-01T11:12:34.882Z,1009.3
2016-03-01T11:13:34.854Z,1009.34
2016-03-01T11:14:34.825Z,1009.31
2016-03-01T11:15:34.828Z,1009.28
2016-03-01T11:16:34.784Z,1009.25
2016-03-01T11:17:34.754Z,1009.15
2016-03-01T11:18:34.726Z,1009.13
2016-03-01T11:19:34.713Z,1009.08
2016-03-01T11:20:34.685Z,1009.09
2016-03-01T11:21:34.672Z,1009.12
2016-03-01T11:22:34.628Z,1009.12
2016-03-01T11:23:34.614Z,1009.11
2016-03-01T11:24:34.586Z,1009.07
2016-03-01T11:25:34.557Z,1008.97
2016-03-01T11:26:34.545Z,1008.9
2016-03-01T11:27:34.516Z,1008.84
2016-03-01T11:28:34.503Z,1008.8
2016-03-01T11:29:34.474Z,1008.73
2016-03-01T11:30:34.446Z,1008.67
2016-03-01T11:31:34.417Z,1008.67
2016-03-01T11:32:34.388Z,1008.68
2016-03-01T11:33:34.377Z,1008.62
2016-03-01T11:34:34.363Z,1008.65
2016-03-01T11:35:34.318Z,1008.63
2016-03-01T11:36:34.305Z,1008.6
2016-03-01T11:37:34.277Z,1008.59
2016-03-01T11:38:34.249Z,1008.55
2016-03-01T11:39:34.235Z,1008.54
2016-03-01T11:40:34.223Z,1008.53
2016-03-01T11:41:34.179Z,1008.47
2016-03-01T11:42:34.165Z,1008.42
2016-03-01T11:43:34.138Z,1008.43
2016-03-01T11:44:34.124Z,1008.38
2016-03-01T11:45:34.080Z,1008.34
2016-03-01T11:46:34.067Z,1008.3
2016-03-01T11:47:34.039Z,1008.34
2016-03-01T11:48:34.026Z,1008.26
2016-03-01T11:49:33.997Z,1008.27
2016-03-01T11:50:33.968Z,1008.23
2016-03-01T11:51:33.940Z,1008.14
2016-03-01T11:52:33.927Z,1008.12
2016-03-01T11:53:33.899Z,1008.11
2016-03-01T11:54:33.870Z,1007.97
2016-03-01T11:55:33.842Z,1008.01
2016-03-01T11:56:33.828Z,1007.97
2016-03-01T11:57:33.800Z,1007.96
2016-03-01T11:58:33.771Z,1007.88
2016-03-01T11:59:33.758Z,1007.87
2016-03-01T12:00:33.729Z,1007.85
2016-03-01T12:01:33.717Z,1007.86
2016-03-01T12:02:33.688Z,1007.77
2016-03-01T12:03:33.660Z,1007.81
2016-03-01T12:04:33.631Z,1007.8
2016-03-01T12:05:33.618Z,1007.76
2016-03-01T12:06:33.591Z,1007.78
2016-03-01T12:07:33.562Z,1007.67
2016-03-01T12:08:33.533Z,1007.69